.
WxDataArchive / Data Records for 2008-09-11
2008-09-10 September 2008 2008-09-12

Data Records for Thursday, 11 September 2008

Time	Temp	Chill	HIndex	Humid	Dewpt	 Wind 	HiWind	WindDir	Rain 	Barom 
-----	----	-----	------	-----	-----	------	------	-------	-----	----- 
00:00	53.5	53.5	53.5	73	45.1	0	0	---	0.00	30.188 
00:05	53.3	53.3	53.3	74	45.2	0	0	---	0.00	30.188 
00:10	53.2	53.2	53.2	75	45.5	0	1	90	0.00	30.188 
00:15	53.1	53.1	53.1	75	45.4	0	0	---	0.00	30.189 
00:20	53.1	53.1	53.1	75	45.4	0	0	---	0.00	30.189 
00:25	52.9	52.9	52.9	76	45.5	0	0	---	0.00	30.189 
00:30	52.8	52.8	52.8	76	45.4	0	1	90	0.00	30.188 
00:35	52.6	52.6	52.6	77	45.6	0	0	---	0.00	30.188 
00:40	52.5	52.5	52.5	77	45.5	0	0	---	0.00	30.188 
00:45	52.3	52.3	52.3	77	45.3	0	0	---	0.00	30.189 
00:50	52.2	52.2	52.2	77	45.2	0	0	---	0.00	30.189 
00:55	51.9	51.9	51.9	78	45.3	0	0	---	0.00	30.189 
01:00	51.7	51.7	51.7	79	45.4	0	0	---	0.00	30.181 
01:05	51.6	51.6	51.6	80	45.6	0	0	---	0.00	30.181 
01:10	51.4	51.4	51.4	80	45.4	0	0	---	0.00	30.181 
01:15	51.3	51.3	51.3	81	45.7	0	0	---	0.00	30.175 
01:20	51.4	51.4	51.4	81	45.8	0	1	90	0.00	30.175 
01:25	51.6	51.6	51.6	81	46.0	0	1	90	0.00	30.175 
01:30	51.7	51.7	51.7	81	46.1	0	1	90	0.00	30.172 
01:35	51.7	51.7	51.7	80	45.7	0	1	90	0.00	30.172 
01:40	51.7	51.7	51.7	80	45.7	0	1	90	0.00	30.172 
01:45	51.7	51.7	51.7	80	45.7	0	1	90	0.00	30.168 
01:50	51.7	51.7	51.7	81	46.1	0	1	90	0.00	30.168 
01:55	51.6	51.6	51.6	81	46.0	0	1	90	0.00	30.168 
02:00	51.6	51.6	51.6	81	46.0	0	1	90	0.00	30.163 
02:05	51.6	51.6	51.6	81	46.0	0	1	90	0.00	30.163 
02:10	51.4	51.4	51.4	81	45.8	0	0	---	0.00	30.163 
02:15	51.3	51.3	51.3	82	46.0	0	0	---	0.00	30.168 
02:20	51.1	51.1	51.1	82	45.8	0	1	90	0.00	30.168 
02:25	51.0	51.0	51.0	82	45.7	0	0	---	0.00	30.168 
02:30	50.8	50.8	50.8	82	45.5	0	0	---	0.00	30.165 
02:35	50.5	50.5	50.5	82	45.2	0	0	---	0.00	30.165 
02:40	50.4	50.4	50.4	83	45.4	0	0	---	0.00	30.165 
02:45	50.1	50.1	50.1	84	45.5	0	0	---	0.00	30.169 
02:50	49.8	49.8	49.8	84	45.2	0	0	---	0.00	30.169 
02:55	49.6	49.6	49.6	85	45.3	0	0	---	0.00	30.169 
03:00	49.5	49.5	49.5	85	45.2	0	0	---	0.00	30.172 
03:05	49.4	49.4	49.4	86	45.4	0	0	---	0.00	30.172 
03:10	49.2	49.2	49.2	86	45.2	0	0	---	0.00	30.172 
03:15	49.1	49.1	49.1	87	45.4	0	0	---	0.00	30.169 
03:20	48.9	48.9	48.9	88	45.5	0	0	---	0.00	30.169 
03:25	48.8	48.8	48.8	88	45.4	0	0	---	0.00	30.169 
03:30	48.6	48.6	48.6	88	45.2	0	0	---	0.00	30.163 
03:35	48.6	48.6	48.6	89	45.5	0	0	---	0.00	30.163 
03:40	48.5	48.5	48.5	89	45.4	0	0	---	0.00	30.163 
03:45	48.5	48.5	48.5	90	45.7	0	0	---	0.00	30.162 
03:50	48.3	48.3	48.3	90	45.5	0	0	---	0.00	30.162 
03:55	48.3	48.3	48.3	90	45.5	0	0	---	0.00	30.162 
04:00	48.3	48.3	48.3	90	45.5	0	1	90	0.00	30.163 
04:05	48.5	48.5	48.5	91	46.0	0	1	90	0.00	30.163 
04:10	48.6	48.6	48.6	91	46.1	0	1	90	0.00	30.163 
04:15	48.8	48.8	48.8	91	46.3	0	1	90	0.00	30.163 
04:20	48.9	48.9	48.9	91	46.4	0	1	90	0.00	30.163 
04:25	48.9	48.9	48.9	91	46.4	0	0	---	0.00	30.163 
04:30	48.8	48.8	48.8	91	46.3	0	0	---	0.00	30.165 
04:35	48.8	48.8	48.8	91	46.3	0	0	---	0.00	30.165 
04:40	48.8	48.8	48.8	91	46.3	0	0	---	0.00	30.165 
04:45	48.6	48.6	48.6	91	46.1	0	1	90	0.00	30.165 
04:50	48.8	48.8	48.8	92	46.6	0	1	90	0.00	30.165 
04:55	48.9	48.9	48.9	91	46.4	0	1	90	0.00	30.165 
05:00	48.9	48.9	48.9	91	46.4	0	0	---	0.00	30.164 
05:05	48.9	48.9	48.9	91	46.4	0	0	---	0.00	30.164 
05:10	48.9	48.9	48.9	91	46.4	0	0	---	0.00	30.164 
05:15	48.9	48.9	48.9	91	46.4	0	1	90	0.00	30.165 
05:20	48.8	48.8	48.8	91	46.3	0	1	90	0.00	30.165 
05:25	48.8	48.8	48.8	91	46.3	0	1	90	0.00	30.165 
05:30	48.8	48.8	48.8	91	46.3	0	1	90	0.00	30.162 
05:35	48.8	48.8	48.8	91	46.3	0	1	90	0.00	30.162 
05:40	48.8	48.8	48.8	91	46.3	0	1	90	0.00	30.162 
05:45	48.8	48.8	48.8	91	46.3	0	1	90	0.00	30.164 
05:50	48.8	48.8	48.8	91	46.3	0	1	90	0.00	30.164 
05:55	48.8	48.8	48.8	91	46.3	0	0	---	0.00	30.164 
06:00	48.6	48.6	48.6	91	46.1	0	1	90	0.00	30.167 
06:05	48.6	48.6	48.6	91	46.1	0	1	90	0.00	30.167 
06:10	48.6	48.6	48.6	91	46.1	0	1	90	0.00	30.167 
06:15	48.6	48.6	48.6	91	46.1	0	0	---	0.00	30.172 
06:20	48.5	48.5	48.5	91	46.0	0	0	---	0.00	30.172 
06:25	48.5	48.5	48.5	92	46.3	0	0	---	0.00	30.172 
06:30	48.5	48.5	48.5	92	46.3	0	1	90	0.00	30.173 
06:35	48.5	48.5	48.5	92	46.3	0	0	---	0.00	30.173 
06:40	48.5	48.5	48.5	92	46.3	0	1	90	0.00	30.173 
06:45	48.6	48.6	48.6	92	46.4	0	1	90	0.00	30.180 
06:50	48.8	48.8	48.8	92	46.6	0	1	90	0.00	30.180 
06:55	49.1	49.1	49.1	92	46.9	0	1	90	0.00	30.180 
07:00	49.4	49.4	49.4	92	47.2	0	2	90	0.00	30.183 
07:05	49.6	49.6	49.6	92	47.4	0	2	90	0.00	30.183 
07:10	49.9	49.9	49.9	91	47.4	0	1	90	0.00	30.183 
07:15	50.7	50.7	50.7	91	48.2	0	4	90	0.00	30.184 
07:20	51.1	51.1	51.1	89	48.0	1	2	112	0.00	30.184 
07:25	51.4	51.4	51.4	88	48.0	1	2	112	0.00	30.184 
07:30	51.9	51.9	51.9	87	48.2	0	1	112	0.00	30.183 
07:35	52.2	52.2	52.2	86	48.1	0	2	112	0.00	30.183 
07:40	52.6	52.6	52.6	86	48.5	0	2	112	0.00	30.183 
07:45	52.9	52.9	52.9	85	48.5	1	3	112	0.00	30.181 
07:50	53.1	53.1	53.1	84	48.4	1	3	112	0.00	30.181 
07:55	53.2	53.2	53.2	85	48.8	1	3	112	0.00	30.181 
08:00	53.5	53.5	53.5	84	48.8	0	2	112	0.00	30.181 
08:05	53.8	53.8	53.8	84	49.1	0	2	112	0.00	30.181 
08:10	54.1	54.1	54.1	84	49.4	1	3	112	0.00	30.181 
08:15	54.4	54.4	54.4	83	49.3	0	2	112	0.00	30.181 
08:20	54.8	54.8	54.8	82	49.4	0	2	112	0.00	30.181 
08:25	55.1	55.1	55.1	81	49.4	1	3	112	0.00	30.181 
08:30	55.6	55.6	55.6	81	49.9	0	2	112	0.00	30.172 
08:35	56.0	56.0	56.0	80	49.9	1	3	112	0.00	30.172 
08:40	56.6	56.6	56.6	79	50.2	1	3	90	0.00	30.172 
08:45	57.2	57.2	57.2	78	50.4	1	4	90	0.00	30.165 
08:50	57.8	57.8	57.8	77	50.6	1	3	90	0.00	30.165 
08:55	58.6	58.6	58.6	73	50.0	1	4	90	0.00	30.165 
09:00	59.8	59.8	59.8	71	50.4	1	3	90	0.00	30.167 
09:05	60.7	60.7	60.7	69	50.5	2	5	90	0.00	30.167 
09:10	61.3	61.3	61.3	67	50.2	1	3	90	0.00	30.167 
09:15	61.8	61.8	61.8	65	49.9	1	4	112	0.00	30.171 
09:20	62.1	62.1	62.1	65	50.2	1	5	90	0.00	30.171 
09:25	63.1	63.1	63.1	64	50.7	1	3	112	0.00	30.171 
09:30	64.2	64.2	64.2	62	50.9	1	2	112	0.00	30.166 
09:35	64.8	64.8	64.8	62	51.5	2	5	112	0.00	30.166 
09:40	65.3	65.3	65.3	59	50.6	2	5	90	0.00	30.166 
09:45	65.8	65.8	65.8	58	50.6	1	4	90	0.00	30.162 
09:50	66.4	66.4	66.4	57	50.7	1	4	90	0.00	30.162 
09:55	67.4	67.4	67.4	55	50.7	0	2	112	0.00	30.162 
10:00	67.8	67.8	67.8	53	50.0	1	3	135	0.00	30.167 
10:05	67.4	67.4	67.4	55	50.7	2	5	90	0.00	30.167 
10:10	67.6	67.6	67.6	55	50.8	1	3	68	0.00	30.167 
10:15	68.8	68.8	68.8	53	51.0	1	4	112	0.00	30.167 
10:20	69.8	69.8	69.8	51	50.8	1	6	90	0.00	30.167 
10:25	70.8	70.8	70.8	51	51.8	1	5	135	0.00	30.167 
10:30	71.5	71.5	71.5	47	50.2	1	5	90	0.00	30.165 
10:35	71.8	71.8	71.8	47	50.5	2	4	112	0.00	30.165 
10:40	72.1	72.1	72.1	46	50.2	2	4	68	0.00	30.165 
10:45	72.3	72.3	72.3	44	49.2	2	6	90	0.00	30.155 
10:50	72.8	72.8	72.8	42	48.4	1	4	112	0.00	30.155 
10:55	73.2	73.2	73.2	43	49.3	1	3	112	0.00	30.155 
11:00	73.3	73.3	73.3	42	48.8	2	5	90	0.00	30.154 
11:05	73.5	73.5	73.5	41	48.3	2	5	90	0.00	30.154 
11:10	73.9	73.9	73.9	42	49.3	2	6	112	0.00	30.154 
11:15	74.4	74.4	74.4	40	48.5	1	4	112	0.00	30.147 
11:20	74.7	74.7	74.7	42	50.1	1	2	112	0.00	30.147 
11:25	74.7	74.7	74.7	41	49.4	3	9	90	0.00	30.147 
11:30	75.1	75.1	77.6	42	50.4	1	4	112	0.00	30.142 
11:35	75.6	75.6	77.6	39	48.9	1	4	112	0.00	30.142 
11:40	75.8	75.8	77.7	40	49.7	1	4	135	0.00	30.142 
11:45	75.8	75.8	77.7	39	49.1	2	4	90	0.00	30.136 
11:50	76.0	76.0	77.8	39	49.2	1	3	90	0.00	30.136 
11:55	76.5	76.5	77.9	38	49.0	1	3	90	0.00	30.136 
12:00	77.4	77.4	78.4	39	50.5	0	2	90	0.00	30.133 
12:05	77.7	77.7	78.3	36	48.6	1	5	112	0.00	30.133 
12:10	77.7	77.7	78.3	36	48.6	2	5	112	0.00	30.133 
12:15	77.4	77.4	78.2	36	48.3	1	6	270	0.00	30.123 
12:20	77.4	77.4	78.2	36	48.3	1	5	90	0.00	30.123 
12:25	77.2	77.2	78.1	35	47.4	2	6	90	0.00	30.123 
12:30	77.2	77.2	78.3	39	50.3	2	9	90	0.00	30.116 
12:35	77.7	77.7	78.5	39	50.7	1	3	90	0.00	30.116 
12:40	78.3	78.3	78.6	36	49.1	1	5	248	0.00	30.116 
12:45	79.0	79.0	79.0	35	49.0	1	4	158	0.00	30.105 
12:50	79.4	79.4	79.1	34	48.6	1	4	90	0.00	30.105 
12:55	79.4	79.4	79.0	33	47.8	1	4	68	0.00	30.105 
13:00	79.0	79.0	78.8	33	47.4	2	5	90	0.00	30.103 
13:05	78.8	78.8	78.7	33	47.2	1	7	90	0.00	30.103 
13:10	79.0	79.0	79.0	35	49.0	1	3	112	0.00	30.103 
13:15	79.6	79.6	79.1	32	47.1	1	3	112	0.00	30.090 
13:20	79.8	79.8	79.2	32	47.3	1	5	112	0.00	30.090 
13:25	79.6	79.6	79.2	34	48.7	1	4	90	0.00	30.090 
13:30	79.8	79.8	79.3	34	48.9	1	3	90	0.00	30.073 
13:35	80.1	80.1	79.5	33	48.4	1	5	248	0.00	30.073 
13:40	80.1	80.1	79.4	32	47.6	1	4	90	0.00	30.073 
13:45	80.5	80.5	79.7	33	48.7	1	4	270	0.00	30.071 
13:50	80.9	80.9	80.0	33	49.1	1	4	90	0.00	30.071 
13:55	81.1	81.1	80.2	34	50.0	1	4	90	0.00	30.071 
14:00	81.2	81.2	80.1	32	48.5	0	3	112	0.00	30.061 
14:05	81.6	81.6	80.3	31	48.0	0	2	112	0.00	30.061 
14:10	81.6	81.6	80.3	31	48.0	1	4	112	0.00	30.061 
14:15	81.1	81.1	79.9	31	47.6	1	4	112	0.00	30.063 
14:20	81.2	81.2	80.2	33	49.3	0	2	112	0.00	30.063 
14:25	82.0	82.0	80.7	32	49.2	1	3	180	0.00	30.063 
14:30	82.6	82.6	81.0	31	48.9	1	4	112	0.00	30.055 
14:35	82.6	82.6	81.1	32	49.7	1	3	90	0.00	30.055 
14:40	82.6	82.6	81.0	31	48.9	1	4	90	0.00	30.055 
14:45	82.4	82.4	80.9	31	48.7	1	3	90	0.00	30.050 
14:50	82.4	82.4	80.9	31	48.7	1	3	270	0.00	30.050 
14:55	82.0	82.0	80.5	30	47.5	1	3	270	0.00	30.050 
15:00	81.8	81.8	80.4	31	48.2	1	4	90	0.00	30.045 
15:05	81.6	81.6	80.5	33	49.7	1	3	90	0.00	30.045 
15:10	81.8	81.8	80.5	32	49.0	0	2	112	0.00	30.045 
15:15	82.0	82.0	80.7	33	50.0	0	3	112	0.00	30.043 
15:20	81.8	81.8	80.4	31	48.2	1	3	112	0.00	30.043 
15:25	81.6	81.6	80.5	34	50.5	1	3	68	0.00	30.043 
15:30	81.2	81.2	80.2	33	49.3	1	4	112	0.00	30.044 
15:35	81.1	81.1	80.2	34	50.0	0	4	112	0.00	30.044 
15:40	80.7	80.7	79.9	34	49.7	0	3	315	0.00	30.044 
15:45	80.7	80.7	80.2	37	52.0	0	1	315	0.00	30.041 
15:50	80.5	80.5	79.9	35	50.3	0	1	315	0.00	30.041 
15:55	80.5	80.5	79.9	35	50.3	0	2	315	0.00	30.041 
16:00	80.5	80.5	79.9	35	50.3	0	2	45	0.00	30.034 
16:05	80.3	80.3	79.7	35	50.1	0	1	45	0.00	30.034 
16:10	80.1	80.1	79.6	35	50.0	0	1	45	0.00	30.034 
16:15	79.9	79.9	79.6	36	50.5	0	1	45	0.00	30.031 
16:20	79.9	79.9	79.6	36	50.5	0	1	45	0.00	30.031 
16:25	79.9	79.9	79.7	38	52.0	0	1	45	0.00	30.031 
16:30	79.8	79.8	79.6	38	51.9	0	1	45	0.00	30.030 
16:35	79.8	79.8	79.6	38	51.9	0	0	---	0.00	30.030 
16:40	79.6	79.6	79.4	37	51.0	0	1	45	0.00	30.030 
16:45	79.6	79.6	79.5	38	51.7	0	1	45	0.00	30.030 
16:50	79.4	79.4	79.5	39	52.3	0	1	45	0.00	30.030 
16:55	79.4	79.4	79.6	41	53.6	0	0	---	0.00	30.030 
17:00	79.2	79.2	79.5	42	54.1	0	0	---	0.00	30.028 
17:05	79.0	79.0	79.4	42	53.9	0	0	---	0.00	30.028 
17:10	78.8	78.8	79.3	42	53.7	0	0	---	0.00	30.028 
17:15	78.8	78.8	79.4	43	54.4	0	0	---	0.00	30.028 
17:20	78.6	78.6	79.2	43	54.2	0	0	---	0.00	30.028 
17:25	78.8	78.8	79.4	43	54.4	0	0	---	0.00	30.028 
17:30	79.0	79.0	79.5	43	54.6	0	1	45	0.00	30.027 
17:35	79.2	79.2	79.7	44	55.4	0	0	---	0.00	30.027 
17:40	79.2	79.2	79.7	44	55.4	0	1	45	0.00	30.027 
17:45	79.0	79.0	79.5	43	54.6	0	1	45	0.00	30.025 
17:50	78.6	78.6	79.2	43	54.2	0	1	45	0.00	30.025 
17:55	78.5	78.5	79.2	44	54.7	0	0	---	0.00	30.025 
18:00	78.3	78.3	79.2	45	55.2	0	0	---	0.00	30.020 
18:05	77.9	77.9	79.0	46	55.4	0	0	---	0.00	30.020 
18:10	77.6	77.6	78.8	47	55.8	0	0	---	0.00	30.020 
18:15	77.2	77.2	78.7	48	56.0	0	0	---	0.00	30.016 
18:20	76.8	76.8	78.5	50	56.7	0	0	---	0.00	30.016 
18:25	76.5	76.5	78.4	53	58.1	0	0	---	0.00	30.016 
18:30	76.0	76.0	78.1	55	58.6	0	0	---	0.00	30.015 
18:35	75.4	75.4	77.7	56	58.6	0	0	---	0.00	30.015 
18:40	74.9	74.9	74.9	58	59.1	0	0	---	0.00	30.015 
18:45	74.4	74.4	74.4	60	59.6	0	0	---	0.00	30.016 
18:50	74.0	74.0	74.0	63	60.6	0	0	---	0.00	30.016 
18:55	73.5	73.5	73.5	63	60.1	0	0	---	0.00	30.016 
19:00	73.0	73.0	73.0	64	60.1	0	0	---	0.00	30.020 
19:05	72.5	72.5	72.5	66	60.5	0	0	---	0.00	30.020 
19:10	72.3	72.3	72.3	66	60.3	0	0	---	0.00	30.020 
19:15	72.0	72.0	72.0	68	60.8	0	0	---	0.00	30.016 
19:20	71.8	71.8	71.8	70	61.5	0	0	---	0.00	30.016 
19:25	71.6	71.6	71.6	71	61.7	0	0	---	0.00	30.016 
19:30	71.3	71.3	71.3	72	61.8	0	0	---	0.00	30.015 
19:35	71.1	71.1	71.1	75	62.8	0	0	---	0.00	30.015 
19:40	70.8	70.8	70.8	77	63.2	0	0	---	0.00	30.015 
19:45	70.4	70.4	70.4	79	63.6	0	0	---	0.00	30.013 
19:50	70.3	70.3	70.3	81	64.2	0	0	---	0.00	30.013 
19:55	70.1	70.1	70.1	82	64.3	0	0	---	0.01	30.013 
20:00	69.9	69.9	69.9	84	64.8	0	0	---	0.00	30.011 
20:05	69.6	69.6	69.6	85	64.9	0	0	---	0.00	30.011 
20:10	69.4	69.4	69.4	85	64.7	0	0	---	0.00	30.011 
20:15	69.1	69.1	69.1	85	64.4	0	0	---	0.00	30.007 
20:20	68.9	68.9	68.9	86	64.5	0	0	---	0.00	30.007 
20:25	68.9	68.9	68.9	87	64.9	0	0	---	0.00	30.007 
20:30	68.9	68.9	68.9	88	65.2	0	0	---	0.00	30.008 
20:35	68.9	68.9	68.9	88	65.2	0	0	---	0.00	30.008 
20:40	68.8	68.8	68.8	88	65.1	0	0	---	0.00	30.008 
20:45	68.6	68.6	68.6	89	65.2	0	0	---	0.00	30.010 
20:50	68.4	68.4	68.4	89	65.0	0	0	---	0.00	30.010 
20:55	68.3	68.3	68.3	89	64.9	0	0	---	0.00	30.010 
21:00	67.9	67.9	67.9	88	64.2	0	0	---	0.00	30.018 
21:05	67.8	67.8	67.8	88	64.1	0	0	---	0.00	30.018 
21:10	67.6	67.6	67.6	88	63.9	0	0	---	0.00	30.018 
21:15	67.6	67.6	67.6	88	63.9	0	0	---	0.00	30.010 
21:20	67.6	67.6	67.6	89	64.2	0	0	---	0.00	30.010 
21:25	67.4	67.4	67.4	89	64.0	0	0	---	0.00	30.010 
21:30	67.4	67.4	67.4	89	64.0	0	0	---	0.00	30.008 
21:35	67.3	67.3	67.3	88	63.6	0	0	---	0.00	30.008 
21:40	67.4	67.4	67.4	88	63.7	0	0	---	0.00	30.008 
21:45	67.6	67.6	67.6	89	64.2	0	0	---	0.00	30.011 
21:50	67.6	67.6	67.6	89	64.2	0	0	---	0.00	30.011 
21:55	67.6	67.6	67.6	90	64.6	0	0	---	0.00	30.011 
22:00	67.6	67.6	67.6	90	64.6	0	0	---	0.00	30.012 
22:05	67.6	67.6	67.6	90	64.6	0	0	---	0.00	30.012 
22:10	67.4	67.4	67.4	90	64.4	0	0	---	0.00	30.012 
22:15	67.6	67.6	67.6	90	64.6	0	0	---	0.00	30.004 
22:20	67.6	67.6	67.6	90	64.6	0	0	---	0.00	30.004 
22:25	67.6	67.6	67.6	90	64.6	0	0	---	0.00	30.004 
22:30	67.6	67.6	67.6	91	64.9	0	0	---	0.00	30.000 
22:35	67.6	67.6	67.6	90	64.6	0	0	---	0.00	30.000 
22:40	67.6	67.6	67.6	90	64.6	0	0	---	0.00	30.000 
22:45	67.6	67.6	67.6	90	64.6	0	0	---	0.00	30.000 
22:50	67.6	67.6	67.6	91	64.9	0	0	---	0.00	30.000 
22:55	67.4	67.4	67.4	90	64.4	0	0	---	0.00	30.000 
23:00	67.4	67.4	67.4	90	64.4	0	0	---	0.00	29.998 
23:05	67.4	67.4	67.4	90	64.4	0	0	---	0.00	29.998 
23:10	67.3	67.3	67.3	90	64.3	0	0	---	0.00	29.998 
23:15	67.3	67.3	67.3	90	64.3	0	0	---	0.00	29.988 
23:20	67.3	67.3	67.3	90	64.3	0	0	---	0.00	29.988 
23:25	67.3	67.3	67.3	90	64.3	0	0	---	0.00	29.988 
23:30	67.3	67.3	67.3	90	64.3	0	0	---	0.00	29.989 
23:35	67.3	67.3	67.3	89	63.9	0	0	---	0.00	29.989 
23:40	67.4	67.4	67.4	89	64.0	0	0	---	0.00	29.989 
23:45	67.4	67.4	67.4	89	64.0	0	0	---	0.00	29.986 
23:50	67.6	67.6	67.6	89	64.2	0	0	---	0.00	29.986 
23:55	67.6	67.6	67.6	89	64.2	0	0	---	0.00	29.986 

CoCoRaHS
IN-AL-39
A2 Web Hosting
Creative Commons License
GoDaddy
Look for:

loaded 2017-10-18 22:00:17 • last modified 2010-11-18 10:43:29
Privacy PolicyDisclaimer
• wx.awcolley.com is powered by PmWiki v.2002016 •
• all content (unless otherwise noted) © 2017 A W Colley